Time;durP1;ratioP1;P1;durP2;ratioP2;P2;SDS_P1;SDS_P2;PMS_P1;PMS_P2;Temp;Humidity;BMP_temperature;BMP_pressure;BME280_temperature;BME280_humidity;BME280_pressure;Samples;Min_cycle;Max_cycle;Signal;HPM_P1;HPM_P2
2023/09/07 00:02:23;;;;;;;9.00;5.23;;;;;;;;;;5028447;28;20400;-61
2023/09/07 00:04:49;;;;;;;7.43;5.07;;;;;;;;;;5027212;28;20046;-60
2023/09/07 00:07:15;;;;;;;9.23;4.93;;;;;;;;;;5028137;28;20522;-60
2023/09/07 00:09:41;;;;;;;9.23;5.33;;;;;;;;;;5027942;28;20136;-60
2023/09/07 00:12:07;;;;;;;6.63;4.63;;;;;;;;;;5028398;28;20046;-60
2023/09/07 00:14:33;;;;;;;7.70;5.30;;;;;;;;;;5027996;28;20042;-60
2023/09/07 00:16:59;;;;;;;7.70;5.53;;;;;;;;;;5028901;28;20095;-61
2023/09/07 00:19:25;;;;;;;9.83;5.63;;;;;;;;;;5032209;28;20049;-60
2023/09/07 00:21:51;;;;;;;8.93;5.33;;;;;;;;;;5032165;28;20578;-61
2023/09/07 00:24:18;;;;;;;9.83;5.77;;;;;;;;;;5031318;28;20049;-60
2023/09/07 00:26:45;;;;;;;6.53;4.87;;;;;;;;;;5032648;28;20059;-60
2023/09/07 00:29:11;;;;;;;7.33;5.23;;;;;;;;;;5032149;28;20046;-60
2023/09/07 00:31:37;;;;;;;6.87;5.07;;;;;;;;;;5031951;28;20100;-61
2023/09/07 00:34:03;;;;;;;7.97;5.17;;;;;;;;;;5032020;28;20053;-61
2023/09/07 00:36:29;;;;;;;6.43;5.37;;;;;;;;;;5031900;28;20052;-61
2023/09/07 00:38:55;;;;;;;6.43;5.47;;;;;;;;;;5031536;28;20064;-60
2023/09/07 00:41:21;;;;;;;9.30;6.27;;;;;;;;;;5031782;28;20494;-61
2023/09/07 00:43:47;;;;;;;9.00;5.47;;;;;;;;;;5031941;28;20090;-60
2023/09/07 00:46:13;;;;;;;8.77;5.70;;;;;;;;;;5031483;28;20534;-61
2023/09/07 00:48:39;;;;;;;7.80;6.13;;;;;;;;;;5031348;28;20063;-60
2023/09/07 00:51:06;;;;;;;10.27;5.87;;;;;;;;;;5031813;28;20487;-60
2023/09/07 00:53:33;;;;;;;9.50;5.80;;;;;;;;;;5031589;28;20609;-60
2023/09/07 00:55:59;;;;;;;7.30;5.57;;;;;;;;;;5031575;28;20056;-61
2023/09/07 00:58:25;;;;;;;8.03;5.80;;;;;;;;;;5030988;28;20041;-61
2023/09/07 01:00:51;;;;;;;9.80;5.47;;;;;;;;;;5031514;28;20050;-60
2023/09/07 01:03:17;;;;;;;9.77;6.07;;;;;;;;;;5031412;28;20041;-60
2023/09/07 01:06:02;;;;;;;7.77;5.80;;;;;;;;;;5031244;28;20053;-61
2023/09/07 01:08:32;;;;;;;7.90;5.60;;;;;;;;;;5063348;28;20048;-60
2023/09/07 01:10:58;;;;;;;9.60;5.43;;;;;;;;;;5031235;28;20081;-60
2023/09/07 01:13:24;;;;;;;7.37;6.23;;;;;;;;;;5030883;28;20050;-60
2023/09/07 01:15:50;;;;;;;8.93;6.00;;;;;;;;;;5031422;28;20099;-60
2023/09/07 01:18:17;;;;;;;10.93;6.27;;;;;;;;;;5030959;28;20095;-60
2023/09/07 01:20:44;;;;;;;9.77;6.30;;;;;;;;;;5031175;28;20045;-60
2023/09/07 01:23:11;;;;;;;10.57;5.63;;;;;;;;;;5031088;28;20042;-60
2023/09/07 01:25:37;;;;;;;10.60;6.70;;;;;;;;;;5030312;28;20046;-60
2023/09/07 01:28:03;;;;;;;9.20;6.70;;;;;;;;;;5031193;28;20045;-60
2023/09/07 01:30:29;;;;;;;8.23;5.63;;;;;;;;;;5030171;28;20179;-60
2023/09/07 01:32:55;;;;;;;8.53;5.63;;;;;;;;;;5030375;28;20038;-60
2023/09/07 01:35:22;;;;;;;7.77;5.80;;;;;;;;;;5030659;28;20052;-60
2023/09/07 01:37:48;;;;;;;11.33;6.07;;;;;;;;;;5030963;28;20052;-59
2023/09/07 01:40:15;;;;;;;10.73;6.93;;;;;;;;;;5030719;28;20050;-60
2023/09/07 01:42:41;;;;;;;9.40;6.60;;;;;;;;;;5030401;28;20057;-60
2023/09/07 01:45:07;;;;;;;10.10;6.63;;;;;;;;;;5030734;28;20056;-60
2023/09/07 01:47:33;;;;;;;7.23;5.70;;;;;;;;;;5030355;28;20041;-60
2023/09/07 01:49:59;;;;;;;8.00;5.93;;;;;;;;;;5030538;28;20048;-60
2023/09/07 01:52:25;;;;;;;7.83;5.60;;;;;;;;;;5030690;28;20535;-60
2023/09/07 01:54:51;;;;;;;10.03;6.60;;;;;;;;;;5030338;28;20042;-60
2023/09/07 01:57:17;;;;;;;7.43;6.23;;;;;;;;;;5029758;28;20052;-60
2023/09/07 01:59:43;;;;;;;12.10;8.00;;;;;;;;;;5030481;28;20045;-60
2023/09/07 02:02:09;;;;;;;10.47;6.87;;;;;;;;;;5030636;28;20053;-60
2023/09/07 02:04:35;;;;;;;12.27;7.00;;;;;;;;;;5030173;28;20048;-60
2023/09/07 02:07:01;;;;;;;11.10;7.03;;;;;;;;;;5029955;28;20049;-60
2023/09/07 02:09:27;;;;;;;9.07;6.70;;;;;;;;;;5030036;28;20101;-60
2023/09/07 02:11:53;;;;;;;11.00;7.50;;;;;;;;;;5030090;28;20053;-60
2023/09/07 02:14:19;;;;;;;11.77;7.50;;;;;;;;;;5030285;28;20479;-60
2023/09/07 02:16:45;;;;;;;10.13;7.67;;;;;;;;;;5030096;28;20046;-60
2023/09/07 02:19:11;;;;;;;11.63;8.13;;;;;;;;;;5029725;28;20095;-60
2023/09/07 02:21:37;;;;;;;10.57;6.87;;;;;;;;;;5029790;28;20041;-60
2023/09/07 02:24:03;;;;;;;12.70;7.60;;;;;;;;;;5030058;28;20125;-60
2023/09/07 02:26:29;;;;;;;9.20;7.43;;;;;;;;;;5029921;28;20081;-60
2023/09/07 02:28:55;;;;;;;12.00;7.70;;;;;;;;;;5029562;28;20099;-60
2023/09/07 02:31:21;;;;;;;11.37;7.47;;;;;;;;;;5029250;28;20042;-60
2023/09/07 02:33:47;;;;;;;9.10;6.57;;;;;;;;;;5029822;28;20046;-60
2023/09/07 02:36:13;;;;;;;12.03;7.40;;;;;;;;;;5029477;28;20053;-60
2023/09/07 02:38:39;;;;;;;15.07;7.60;;;;;;;;;;5029854;28;20045;-60
2023/09/07 02:41:05;;;;;;;12.23;7.57;;;;;;;;;;5028592;28;20431;-60
2023/09/07 02:43:31;;;;;;;13.10;8.57;;;;;;;;;;5029194;28;20073;-60
2023/09/07 02:45:57;;;;;;;15.10;8.67;;;;;;;;;;5029260;28;20041;-60
2023/09/07 02:48:23;;;;;;;12.43;7.90;;;;;;;;;;5029848;28;20556;-60
2023/09/07 02:50:50;;;;;;;13.60;8.77;;;;;;;;;;5029528;28;20045;-60
2023/09/07 02:53:16;;;;;;;13.00;8.20;;;;;;;;;;5028744;28;20049;-60
2023/09/07 02:55:42;;;;;;;12.87;8.30;;;;;;;;;;5029302;28;20077;-60
2023/09/07 02:58:08;;;;;;;12.07;8.33;;;;;;;;;;5029487;28;20509;-60
2023/09/07 03:00:34;;;;;;;11.07;8.43;;;;;;;;;;5028984;28;20574;-60
2023/09/07 03:03:00;;;;;;;8.87;7.60;;;;;;;;;;5029453;28;20052;-60
2023/09/07 03:05:29;;;;;;;13.53;8.97;;;;;;;;;;5028668;28;20049;-60
2023/09/07 03:07:55;;;;;;;10.47;8.30;;;;;;;;;;5028877;28;20491;-60
2023/09/07 03:10:21;;;;;;;11.97;9.77;;;;;;;;;;5028862;28;20092;-60
2023/09/07 03:12:47;;;;;;;12.40;9.50;;;;;;;;;;5028761;28;21001;-60
2023/09/07 03:15:13;;;;;;;11.17;9.30;;;;;;;;;;5028768;28;20092;-60
2023/09/07 03:17:39;;;;;;;13.83;9.63;;;;;;;;;;5028998;28;20045;-60
2023/09/07 03:20:16;;;;;;;11.47;8.80;;;;;;;;;;5028518;28;20091;-60
2023/09/07 03:22:42;;;;;;;13.23;9.77;;;;;;;;;;5029021;28;20048;-60
2023/09/07 03:25:09;;;;;;;12.60;8.53;;;;;;;;;;5028903;28;20045;-60
2023/09/07 03:27:36;;;;;;;12.97;9.77;;;;;;;;;;5028616;28;20411;-61
2023/09/07 03:30:02;;;;;;;15.30;9.63;;;;;;;;;;5028663;28;20041;-60
2023/09/07 03:32:32;;;;;;;13.27;9.60;;;;;;;;;;5028774;28;20046;-60
2023/09/07 03:34:58;;;;;;;11.37;9.27;;;;;;;;;;5028970;28;20085;-60
2023/09/07 03:37:24;;;;;;;13.37;10.43;;;;;;;;;;5028803;28;20487;-60
2023/09/07 03:39:51;;;;;;;14.90;11.23;;;;;;;;;;5028587;28;20068;-60
2023/09/07 03:42:17;;;;;;;12.57;9.17;;;;;;;;;;5027868;28;20066;-59
2023/09/07 03:44:43;;;;;;;12.50;9.83;;;;;;;;;;5028676;28;20080;-60
2023/09/07 03:47:10;;;;;;;12.73;9.90;;;;;;;;;;5028840;28;20056;-60
2023/09/07 03:49:36;;;;;;;12.20;9.17;;;;;;;;;;5028592;28;20045;-60
2023/09/07 03:52:02;;;;;;;15.97;9.90;;;;;;;;;;5029741;28;20087;-60
2023/09/07 03:54:31;;;;;;;11.83;10.00;;;;;;;;;;5035115;28;20045;-60
2023/09/07 03:56:57;;;;;;;13.10;10.67;;;;;;;;;;5034883;28;20466;-60
2023/09/07 03:59:23;;;;;;;12.10;9.63;;;;;;;;;;5035170;28;20450;-60
2023/09/07 04:01:49;;;;;;;15.47;10.03;;;;;;;;;;5034917;28;20050;-60
2023/09/07 04:04:15;;;;;;;16.47;11.10;;;;;;;;;;5034818;28;20045;-60
2023/09/07 04:06:41;;;;;;;13.97;10.50;;;;;;;;;;5035125;28;20116;-60
2023/09/07 04:09:07;;;;;;;14.33;9.77;;;;;;;;;;5034951;28;20473;-60
2023/09/07 04:11:33;;;;;;;15.73;10.80;;;;;;;;;;5034871;28;20056;-60
2023/09/07 04:13:59;;;;;;;12.20;10.20;;;;;;;;;;5034556;28;20420;-60
2023/09/07 04:16:25;;;;;;;15.43;11.23;;;;;;;;;;5034872;28;20042;-60
2023/09/07 04:18:51;;;;;;;17.33;11.43;;;;;;;;;;5034936;28;20190;-60
2023/09/07 04:21:17;;;;;;;16.40;10.70;;;;;;;;;;5034618;28;20053;-60
2023/09/07 04:23:43;;;;;;;13.07;11.47;;;;;;;;;;5034735;28;20416;-60
2023/09/07 04:26:10;;;;;;;18.03;10.47;;;;;;;;;;5034854;28;20041;-60
2023/09/07 04:28:36;;;;;;;15.17;11.53;;;;;;;;;;5034488;28;20045;-61
2023/09/07 04:31:03;;;;;;;13.20;11.37;;;;;;;;;;5034404;28;20127;-60
2023/09/07 04:33:32;;;;;;;14.90;11.83;;;;;;;;;;5034669;28;20499;-60
2023/09/07 04:36:11;;;;;;;14.53;11.63;;;;;;;;;;5034662;28;20072;-60
2023/09/07 04:38:38;;;;;;;15.50;10.97;;;;;;;;;;5034868;28;20045;-60
2023/09/07 04:41:10;;;;;;;16.30;11.43;;;;;;;;;;5034815;28;20061;-60
2023/09/07 04:43:37;;;;;;;17.38;12.75;;;;;;;;;;5034116;28;20049;-60
2023/09/07 04:46:03;;;;;;;17.33;11.80;;;;;;;;;;5034510;28;20124;-60
2023/09/07 04:48:29;;;;;;;16.93;11.87;;;;;;;;;;5034732;28;20080;-60
2023/09/07 04:51:13;;;;;;;13.57;11.73;;;;;;;;;;5034513;28;20051;-60
2023/09/07 04:53:40;;;;;;;23.73;12.50;;;;;;;;;;5034734;28;20046;-60
2023/09/07 04:56:06;;;;;;;19.00;12.77;;;;;;;;;;5034120;28;20056;-60
2023/09/07 04:58:33;;;;;;;16.70;12.30;;;;;;;;;;5034574;28;20076;-62
2023/09/07 05:01:03;;;;;;;16.83;10.67;;;;;;;;;;5034705;28;20111;-60
2023/09/07 05:03:29;;;;;;;20.57;12.13;;;;;;;;;;5032742;28;20503;-60
2023/09/07 05:05:56;;;;;;;18.27;13.07;;;;;;;;;;5030777;28;20133;-60
2023/09/07 05:08:22;;;;;;;14.13;12.13;;;;;;;;;;5031191;28;20181;-60
2023/09/07 05:10:48;;;;;;;17.60;12.67;;;;;;;;;;5031356;28;20094;-61
2023/09/07 05:13:15;;;;;;;21.57;12.67;;;;;;;;;;5030839;28;20044;-61
2023/09/07 05:15:49;;;;;;;17.97;12.87;;;;;;;;;;5031021;28;20045;-60
2023/09/07 05:18:15;;;;;;;15.07;12.20;;;;;;;;;;5030981;28;20385;-60
2023/09/07 05:20:41;;;;;;;18.13;13.93;;;;;;;;;;5031230;28;20076;-60
2023/09/07 05:23:06;;;;;;;18.03;12.70;;;;;;;;;;5030583;28;20649;-60
2023/09/07 05:25:32;;;;;;;20.33;13.13;;;;;;;;;;5030937;28;20083;-60
2023/09/07 05:27:58;;;;;;;16.70;12.37;;;;;;;;;;5030834;28;20042;-60
2023/09/07 05:30:24;;;;;;;15.87;12.83;;;;;;;;;;5030794;28;20049;-60
2023/09/07 05:32:50;;;;;;;16.30;12.83;;;;;;;;;;5030966;28;20518;-60
2023/09/07 05:35:17;;;;;;;18.60;11.90;;;;;;;;;;5030085;28;20053;-60
2023/09/07 05:37:43;;;;;;;16.33;12.10;;;;;;;;;;5030728;28;20042;-60
2023/09/07 05:40:09;;;;;;;18.23;13.60;;;;;;;;;;5030395;28;20072;-60
2023/09/07 05:42:35;;;;;;;16.30;12.87;;;;;;;;;;5030254;28;20053;-60
2023/09/07 05:45:01;;;;;;;16.23;11.57;;;;;;;;;;5030690;28;20041;-60
2023/09/07 05:47:28;;;;;;;16.07;12.27;;;;;;;;;;5030448;28;20046;-60
2023/09/07 05:49:54;;;;;;;16.53;13.07;;;;;;;;;;5029877;28;20050;-60
2023/09/07 05:52:20;;;;;;;15.77;12.77;;;;;;;;;;5030185;28;20056;-61
2023/09/07 05:54:46;;;;;;;15.07;11.33;;;;;;;;;;5030369;28;20088;-60
2023/09/07 05:57:12;;;;;;;15.73;11.93;;;;;;;;;;5030335;28;20053;-61
2023/09/07 05:59:38;;;;;;;18.90;11.87;;;;;;;;;;5030313;28;20041;-60
2023/09/07 06:02:04;;;;;;;15.40;11.20;;;;;;;;;;5030177;28;20508;-60
2023/09/07 06:04:30;;;;;;;13.83;10.50;;;;;;;;;;5029708;28;20500;-60
2023/09/07 06:06:56;;;;;;;15.67;11.23;;;;;;;;;;5029935;28;20056;-60
2023/09/07 06:09:22;;;;;;;16.90;12.63;;;;;;;;;;5030316;28;20087;-61
2023/09/07 06:11:48;;;;;;;15.70;11.80;;;;;;;;;;5029999;28;20037;-60
2023/09/07 06:14:14;;;;;;;14.33;11.97;;;;;;;;;;5029689;28;20042;-61
2023/09/07 06:16:40;;;;;;;20.73;12.53;;;;;;;;;;5029772;28;20042;-60
2023/09/07 06:19:07;;;;;;;18.37;12.73;;;;;;;;;;5029658;28;20044;-60
2023/09/07 06:21:33;;;;;;;12.90;10.80;;;;;;;;;;5030046;28;20879;-60
2023/09/07 06:23:59;;;;;;;12.67;11.00;;;;;;;;;;5030242;28;20387;-60
2023/09/07 06:26:25;;;;;;;13.10;10.87;;;;;;;;;;5029690;28;20049;-60
2023/09/07 06:28:51;;;;;;;13.03;11.60;;;;;;;;;;5029329;28;20407;-60
2023/09/07 06:31:17;;;;;;;13.27;10.23;;;;;;;;;;5029506;28;20132;-60
2023/09/07 06:33:43;;;;;;;15.23;11.03;;;;;;;;;;5029855;28;20049;-60
2023/09/07 06:36:09;;;;;;;14.20;10.47;;;;;;;;;;5029688;28;20045;-60
2023/09/07 06:38:35;;;;;;;11.83;9.20;;;;;;;;;;5029332;28;20049;-60
2023/09/07 06:41:01;;;;;;;14.43;9.83;;;;;;;;;;5029148;28;20137;-60
2023/09/07 06:43:28;;;;;;;13.13;9.90;;;;;;;;;;5029509;28;20515;-60
2023/09/07 06:45:54;;;;;;;12.47;9.27;;;;;;;;;;5029189;28;20049;-60
2023/09/07 06:48:20;;;;;;;13.60;9.20;;;;;;;;;;5029197;28;20045;-61
2023/09/07 06:50:46;;;;;;;15.83;10.23;;;;;;;;;;5060745;28;20089;-60
2023/09/07 06:53:12;;;;;;;13.73;9.97;;;;;;;;;;5029621;28;20057;-60
2023/09/07 06:55:38;;;;;;;11.10;8.30;;;;;;;;;;5029352;28;20041;-60
2023/09/07 06:58:04;;;;;;;12.33;7.43;;;;;;;;;;5028790;28;20427;-60
2023/09/07 07:00:30;;;;;;;11.13;6.93;;;;;;;;;;5029104;28;20049;-61
2023/09/07 07:02:56;;;;;;;10.17;6.80;;;;;;;;;;5029236;28;20128;-61
2023/09/07 07:05:23;;;;;;;10.43;6.87;;;;;;;;;;5029310;28;20057;-60
2023/09/07 07:07:49;;;;;;;9.47;6.37;;;;;;;;;;5029067;28;20049;-60
2023/09/07 07:10:15;;;;;;;11.63;6.67;;;;;;;;;;5029122;28;20081;-60
2023/09/07 07:12:41;;;;;;;8.27;6.27;;;;;;;;;;5028468;28;20064;-60
2023/09/07 07:15:07;;;;;;;9.43;7.03;;;;;;;;;;5029086;28;20048;-60
2023/09/07 07:17:33;;;;;;;11.20;6.80;;;;;;;;;;5028939;28;20060;-61
2023/09/07 07:19:59;;;;;;;9.27;6.63;;;;;;;;;;5029258;28;20041;-61
2023/09/07 07:22:25;;;;;;;6.90;5.60;;;;;;;;;;5029281;28;20046;-60
2023/09/07 07:24:51;;;;;;;9.90;6.20;;;;;;;;;;5028170;28;20056;-61
2023/09/07 07:27:17;;;;;;;9.30;5.80;;;;;;;;;;5027985;28;20038;-60
2023/09/07 07:29:44;;;;;;;7.37;5.90;;;;;;;;;;5028662;28;20045;-60
2023/09/07 07:32:10;;;;;;;7.10;5.90;;;;;;;;;;5028836;28;20687;-61
2023/09/07 07:34:36;;;;;;;11.23;5.93;;;;;;;;;;5028000;28;20455;-60
2023/09/07 07:37:03;;;;;;;7.67;5.50;;;;;;;;;;5028814;28;20053;-60
2023/09/07 07:39:29;;;;;;;8.73;5.83;;;;;;;;;;5028845;28;20049;-60
2023/09/07 07:41:56;;;;;;;8.37;5.10;;;;;;;;;;5028564;28;20124;-60
2023/09/07 07:44:22;;;;;;;9.30;5.87;;;;;;;;;;5028442;28;20556;-60
2023/09/07 07:46:48;;;;;;;8.07;5.33;;;;;;;;;;5028305;28;20128;-61
2023/09/07 07:49:14;;;;;;;8.30;6.30;;;;;;;;;;5028077;28;20404;-61
2023/09/07 07:51:40;;;;;;;9.93;5.67;;;;;;;;;;5028681;28;20052;-60
2023/09/07 07:54:06;;;;;;;7.87;5.23;;;;;;;;;;5028293;28;20052;-60
2023/09/07 07:56:32;;;;;;;7.57;5.10;;;;;;;;;;5028240;28;20049;-60
2023/09/07 07:58:58;;;;;;;7.97;5.37;;;;;;;;;;5028349;28;20056;-60
2023/09/07 08:01:26;;;;;;;8.20;5.57;;;;;;;;;;5028150;28;20045;-60
2023/09/07 08:03:52;;;;;;;10.27;5.50;;;;;;;;;;5028422;28;20096;-61
2023/09/07 08:06:18;;;;;;;7.80;5.40;;;;;;;;;;5027995;28;20495;-61
2023/09/07 08:08:44;;;;;;;7.93;5.37;;;;;;;;;;5028629;28;20060;-60
2023/09/07 08:11:10;;;;;;;7.60;5.90;;;;;;;;;;5028154;28;20488;-60
2023/09/07 08:13:37;;;;;;;10.77;5.60;;;;;;;;;;5027963;28;20128;-60
2023/09/07 08:16:03;;;;;;;7.17;5.60;;;;;;;;;;5028270;28;20073;-61
2023/09/07 08:18:31;;;;;;;6.73;5.23;;;;;;;;;;5027775;28;20072;-60
2023/09/07 08:20:57;;;;;;;7.63;4.43;;;;;;;;;;5028023;28;20571;-61
2023/09/07 08:23:23;;;;;;;7.80;4.70;;;;;;;;;;5028428;28;20137;-60
2023/09/07 08:25:51;;;;;;;15.07;5.00;;;;;;;;;;5027906;28;20474;-60
2023/09/07 08:28:18;;;;;;;8.00;4.40;;;;;;;;;;5028015;28;20063;-61
2023/09/07 08:30:44;;;;;;;7.50;4.80;;;;;;;;;;5028034;28;20089;-61
2023/09/07 08:33:10;;;;;;;8.93;4.80;;;;;;;;;;5028456;28;20046;-61
2023/09/07 08:35:43;;;;;;;8.03;4.50;;;;;;;;;;5028005;28;20041;-61
2023/09/07 08:38:09;;;;;;;7.07;4.20;;;;;;;;;;5028177;28;20134;-60
2023/09/07 08:40:35;;;;;;;7.03;4.37;;;;;;;;;;5030173;28;20415;-61
2023/09/07 08:43:06;;;;;;;6.87;3.77;;;;;;;;;;5031531;28;20153;-64
2023/09/07 08:45:33;;;;;;;8.50;3.63;;;;;;;;;;5031479;28;20049;-61
2023/09/07 08:47:59;;;;;;;7.53;4.03;;;;;;;;;;5031075;28;20392;-60
2023/09/07 08:50:26;;;;;;;5.87;3.73;;;;;;;;;;5031782;28;20137;-61
2023/09/07 08:52:53;;;;;;;6.57;4.20;;;;;;;;;;5031850;28;20057;-60
2023/09/07 08:55:19;;;;;;;6.87;3.77;;;;;;;;;;5031530;28;20128;-61
2023/09/07 08:57:45;;;;;;;8.27;4.60;;;;;;;;;;5031531;28;20048;-61
2023/09/07 09:00:16;;;;;;;7.32;3.80;;;;;;;;;;5031408;28;20503;-60
2023/09/07 09:02:42;;;;;;;8.00;4.25;;;;;;;;;;5030781;28;20108;-60
2023/09/07 09:05:12;;;;;;;8.50;4.32;;;;;;;;;;5031788;28;20076;-60
2023/09/07 09:07:38;;;;;;;9.40;4.05;;;;;;;;;;5031263;28;20045;-60
2023/09/07 09:10:08;;;;;;;7.90;4.80;;;;;;;;;;5031390;28;20107;-61
2023/09/07 09:12:34;;;;;;;7.95;3.78;;;;;;;;;;5030418;28;20045;-61
2023/09/07 09:15:03;;;;;;;5.57;3.63;;;;;;;;;;5031035;28;20504;-61
2023/09/07 09:17:30;;;;;;;8.90;3.90;;;;;;;;;;5031088;28;20111;-60
2023/09/07 09:19:56;;;;;;;5.40;4.00;;;;;;;;;;5030887;28;20124;-61
2023/09/07 09:22:22;;;;;;;7.45;4.30;;;;;;;;;;5030380;28;20045;-61
2023/09/07 09:24:48;;;;;;;6.50;3.42;;;;;;;;;;5031043;28;20044;-61
2023/09/07 09:27:14;;;;;;;6.47;4.28;;;;;;;;;;5030804;28;20069;-61
2023/09/07 09:29:40;;;;;;;6.57;3.33;;;;;;;;;;5030905;28;20104;-61
2023/09/07 09:32:10;;;;;;;6.32;3.92;;;;;;;;;;5030897;28;20088;-61
2023/09/07 09:34:36;;;;;;;6.88;3.83;;;;;;;;;;5030173;28;20053;-61
2023/09/07 09:37:06;;;;;;;7.45;3.83;;;;;;;;;;5030615;28;20052;-61
2023/09/07 09:39:32;;;;;;;7.32;3.55;;;;;;;;;;5030229;28;20491;-61
2023/09/07 09:41:59;;;;;;;10.05;4.40;;;;;;;;;;5030615;28;20077;-61
2023/09/07 09:44:29;;;;;;;4.70;3.35;;;;;;;;;;5030290;28;20073;-61
2023/09/07 09:46:56;;;;;;;6.80;3.83;;;;;;;;;;5030667;28;20091;-61
2023/09/07 09:49:22;;;;;;;5.32;4.03;;;;;;;;;;5030345;28;20072;-61
2023/09/07 09:51:51;;;;;;;5.65;4.07;;;;;;;;;;5030124;28;20045;-61
2023/09/07 09:54:18;;;;;;;6.68;3.83;;;;;;;;;;5029631;28;20136;-61
2023/09/07 09:56:44;;;;;;;9.85;4.05;;;;;;;;;;5030303;28;20046;-61
2023/09/07 09:59:11;;;;;;;4.68;3.65;;;;;;;;;;5030472;28;20042;-61
2023/09/07 10:01:55;;;;;;;9.30;3.70;;;;;;;;;;5030065;28;20037;-61
2023/09/07 10:04:22;;;;;;;4.82;3.33;;;;;;;;;;5030231;28;20139;-61
2023/09/07 10:06:56;;;;;;;6.15;4.05;;;;;;;;;;5030247;28;20103;-61
2023/09/07 10:09:22;;;;;;;4.32;3.22;;;;;;;;;;5029915;28;20041;-61
2023/09/07 10:11:53;;;;;;;5.78;3.83;;;;;;;;;;5029723;28;20053;-61
2023/09/07 10:14:19;;;;;;;7.50;3.67;;;;;;;;;;5029928;28;20143;-61
2023/09/07 10:16:49;;;;;;;5.15;3.53;;;;;;;;;;5030115;28;20085;-61
2023/09/07 10:19:22;;;;;;;4.43;3.42;;;;;;;;;;5029897;28;20041;-61
2023/09/07 10:21:48;;;;;;;8.48;3.95;;;;;;;;;;5029985;28;20045;-61
2023/09/07 10:24:25;;;;;;;6.15;3.45;;;;;;;;;;5029237;28;20492;-61
2023/09/07 10:27:01;;;;;;;8.45;3.85;;;;;;;;;;5029734;28;20479;-61
2023/09/07 10:29:28;;;;;;;5.40;3.60;;;;;;;;;;5029509;28;20057;-61
2023/09/07 10:31:54;;;;;;;4.85;3.33;;;;;;;;;;5028048;28;20061;-61
2023/09/07 10:34:22;;;;;;;8.52;3.53;;;;;;;;;;5029842;28;20060;-61
2023/09/07 10:36:51;;;;;;;6.63;3.25;;;;;;;;;;5029824;28;20140;-61
2023/09/07 10:39:17;;;;;;;7.70;3.78;;;;;;;;;;5029110;28;20143;-61
2023/09/07 10:41:43;;;;;;;8.10;3.70;;;;;;;;;;5029475;28;20089;-61
2023/09/07 10:44:13;;;;;;;5.68;3.90;;;;;;;;;;5029584;28;20046;-61
2023/09/07 10:46:40;;;;;;;4.82;3.20;;;;;;;;;;5029478;28;20053;-61
2023/09/07 10:49:09;;;;;;;6.55;3.80;;;;;;;;;;5028815;28;20052;-61
2023/09/07 10:51:45;;;;;;;8.93;2.97;;;;;;;;;;5029061;28;20132;-61
2023/09/07 10:54:18;;;;;;;12.80;3.65;;;;;;;;;;5029367;28;20041;-61
2023/09/07 10:56:45;;;;;;;6.68;3.25;;;;;;;;;;5029181;28;20045;-61
2023/09/07 10:59:11;;;;;;;5.93;3.30;;;;;;;;;;5028822;28;20496;-61
2023/09/07 11:01:37;;;;;;;6.28;3.45;;;;;;;;;;5028147;28;20377;-62
2023/09/07 11:04:04;;;;;;;5.60;3.15;;;;;;;;;;5029157;28;20074;-61
2023/09/07 11:06:31;;;;;;;5.53;3.15;;;;;;;;;;5029386;28;20050;-61
2023/09/07 11:09:00;;;;;;;4.07;3.13;;;;;;;;;;5029084;28;20044;-61
2023/09/07 11:11:26;;;;;;;8.85;3.70;;;;;;;;;;5028429;28;20045;-61
2023/09/07 11:13:52;;;;;;;4.97;2.92;;;;;;;;;;5029087;28;20567;-61
2023/09/07 11:16:18;;;;;;;6.70;3.75;;;;;;;;;;5028709;28;20038;-61
2023/09/07 11:18:46;;;;;;;4.88;3.38;;;;;;;;;;5029094;28;20052;-61
2023/09/07 11:21:12;;;;;;;6.75;2.88;;;;;;;;;;5029065;28;20045;-61
2023/09/07 11:23:38;;;;;;;6.65;3.38;;;;;;;;;;5028259;28;20107;-61
2023/09/07 11:26:10;;;;;;;3.67;3.22;;;;;;;;;;5027597;28;20067;-62
2023/09/07 11:28:38;;;;;;;6.82;3.33;;;;;;;;;;5028757;28;20528;-62
2023/09/07 11:31:04;;;;;;;9.10;3.42;;;;;;;;;;5028499;28;20610;-61
2023/09/07 11:33:33;;;;;;;6.82;3.38;;;;;;;;;;5028075;28;20052;-61
2023/09/07 11:35:59;;;;;;;5.63;3.25;;;;;;;;;;5028541;28;20431;-61
2023/09/07 11:38:29;;;;;;;6.68;3.15;;;;;;;;;;5028901;28;20045;-61
2023/09/07 11:40:55;;;;;;;4.18;3.55;;;;;;;;;;5028454;28;20053;-61
2023/09/07 11:43:22;;;;;;;4.97;3.20;;;;;;;;;;5028540;28;20067;-62
2023/09/07 11:45:48;;;;;;;5.53;3.42;;;;;;;;;;5028467;28;20499;-62
2023/09/07 11:48:14;;;;;;;4.90;3.28;;;;;;;;;;5028205;28;20056;-62
2023/09/07 11:50:40;;;;;;;4.82;3.00;;;;;;;;;;5028446;28;20049;-60
2023/09/07 11:53:07;;;;;;;7.07;3.50;;;;;;;;;;5028690;28;20454;-60
2023/09/07 11:55:34;;;;;;;5.80;3.03;;;;;;;;;;5027812;28;20075;-63
2023/09/07 11:58:01;;;;;;;4.75;3.22;;;;;;;;;;5028411;28;20140;-60
2023/09/07 12:00:26;;;;;;;5.78;3.35;;;;;;;;;;5028370;28;20052;-60
2023/09/07 12:02:52;;;;;;;6.57;2.97;;;;;;;;;;5028379;28;20591;-60
2023/09/07 12:05:19;;;;;;;3.35;2.78;;;;;;;;;;5060578;28;20041;-60
2023/09/07 12:07:45;;;;;;;8.73;3.00;;;;;;;;;;5028091;28;20072;-60
2023/09/07 12:10:13;;;;;;;3.42;2.47;;;;;;;;;;5028150;28;20506;-60
2023/09/07 12:12:40;;;;;;;6.65;2.65;;;;;;;;;;5028175;28;20050;-60
2023/09/07 12:15:06;;;;;;;3.65;3.00;;;;;;;;;;5032124;28;20410;-60
2023/09/07 12:17:32;;;;;;;5.35;2.92;;;;;;;;;;5032264;28;20049;-60
2023/09/07 12:19:59;;;;;;;9.60;3.10;;;;;;;;;;5031916;28;20049;-60
2023/09/07 12:22:25;;;;;;;5.95;3.13;;;;;;;;;;5032083;28;20072;-62
2023/09/07 12:24:51;;;;;;;7.03;2.85;;;;;;;;;;5032190;28;20495;-62
2023/09/07 12:27:18;;;;;;;6.68;2.83;;;;;;;;;;5031737;28;20041;-62
2023/09/07 12:29:44;;;;;;;3.50;2.58;;;;;;;;;;5031665;28;20049;-60
2023/09/07 12:32:11;;;;;;;5.30;3.33;;;;;;;;;;5030920;28;20042;-60
2023/09/07 12:34:38;;;;;;;6.57;3.25;;;;;;;;;;5031731;28;20525;-60
2023/09/07 12:37:04;;;;;;;4.75;2.65;;;;;;;;;;5031846;28;20060;-60
2023/09/07 12:39:31;;;;;;;4.28;3.00;;;;;;;;;;5032174;28;20100;-60
2023/09/07 12:41:57;;;;;;;3.90;2.70;;;;;;;;;;5031400;28;20474;-60
2023/09/07 12:44:23;;;;;;;4.75;2.95;;;;;;;;;;5031326;28;20124;-60
2023/09/07 12:46:49;;;;;;;6.05;3.45;;;;;;;;;;5031795;28;20103;-60
2023/09/07 12:49:15;;;;;;;5.20;2.83;;;;;;;;;;5031614;28;20132;-60
2023/09/07 12:51:47;;;;;;;5.90;3.38;;;;;;;;;;5031640;28;20128;-60
2023/09/07 12:54:13;;;;;;;5.50;2.80;;;;;;;;;;5031203;28;20611;-60
2023/09/07 12:56:39;;;;;;;6.57;3.50;;;;;;;;;;5031249;28;20136;-60
2023/09/07 12:59:05;;;;;;;6.43;3.13;;;;;;;;;;5031498;28;20135;-60
2023/09/07 13:01:32;;;;;;;7.05;2.80;;;;;;;;;;5031429;28;20120;-60
2023/09/07 13:03:58;;;;;;;6.28;3.15;;;;;;;;;;5030741;28;20549;-60
2023/09/07 13:06:24;;;;;;;7.72;3.10;;;;;;;;;;5031333;28;20049;-60
2023/09/07 13:08:50;;;;;;;4.03;3.20;;;;;;;;;;5031364;28;20046;-60
2023/09/07 13:11:16;;;;;;;6.32;2.80;;;;;;;;;;5031045;28;20049;-60
2023/09/07 13:13:42;;;;;;;7.93;3.13;;;;;;;;;;5031164;28;20487;-60
2023/09/07 13:16:08;;;;;;;6.30;2.85;;;;;;;;;;5030799;28;20489;-60
2023/09/07 13:18:34;;;;;;;6.25;3.03;;;;;;;;;;5030738;28;20049;-60
2023/09/07 13:21:00;;;;;;;6.30;2.75;;;;;;;;;;5030942;28;20041;-60
2023/09/07 13:23:31;;;;;;;6.78;2.83;;;;;;;;;;5031301;28;20042;-60
2023/09/07 13:25:57;;;;;;;5.45;2.67;;;;;;;;;;5029400;28;20546;-60
2023/09/07 13:28:23;;;;;;;6.93;3.05;;;;;;;;;;5030870;28;20088;-60
2023/09/07 13:30:49;;;;;;;3.78;2.80;;;;;;;;;;5030845;28;20056;-61
2023/09/07 13:33:15;;;;;;;6.78;2.58;;;;;;;;;;5030719;28;20056;-60
2023/09/07 13:35:41;;;;;;;5.80;2.88;;;;;;;;;;5030634;28;20041;-60
2023/09/07 13:38:07;;;;;;;3.47;2.75;;;;;;;;;;5030882;28;20045;-60
2023/09/07 13:40:34;;;;;;;4.75;2.90;;;;;;;;;;5029758;28;20057;-60
2023/09/07 13:43:00;;;;;;;3.58;2.63;;;;;;;;;;5030597;28;20051;-60
2023/09/07 13:45:26;;;;;;;4.50;3.13;;;;;;;;;;5030455;28;20041;-60
2023/09/07 13:47:52;;;;;;;5.45;2.75;;;;;;;;;;5030396;28;20522;-60
2023/09/07 13:50:18;;;;;;;4.68;2.90;;;;;;;;;;5030403;28;20049;-60
2023/09/07 13:52:44;;;;;;;4.18;2.80;;;;;;;;;;5029040;28;20049;-60
2023/09/07 13:55:10;;;;;;;4.05;2.83;;;;;;;;;;5029862;28;20081;-60
2023/09/07 13:57:36;;;;;;;4.93;3.22;;;;;;;;;;5029909;28;20146;-60
2023/09/07 14:00:02;;;;;;;5.75;2.90;;;;;;;;;;5030253;28;20080;-60
2023/09/07 14:02:28;;;;;;;4.97;2.83;;;;;;;;;;5030322;28;20115;-60
2023/09/07 14:04:54;;;;;;;3.05;2.45;;;;;;;;;;5030052;28;20056;-60
2023/09/07 14:07:21;;;;;;;4.40;2.75;;;;;;;;;;5061906;28;20045;-60
2023/09/07 14:09:47;;;;;;;3.67;2.75;;;;;;;;;;5030258;28;20515;-60
2023/09/07 14:12:13;;;;;;;3.42;2.42;;;;;;;;;;5030211;28;20091;-61
2023/09/07 14:14:39;;;;;;;4.53;2.58;;;;;;;;;;5030070;28;20077;-60
2023/09/07 14:17:06;;;;;;;4.93;3.05;;;;;;;;;;5029904;28;20512;-60
2023/09/07 14:19:32;;;;;;;4.75;2.80;;;;;;;;;;5029458;28;20060;-60
2023/09/07 14:21:58;;;;;;;6.47;2.47;;;;;;;;;;5029766;28;20049;-60
2023/09/07 14:24:25;;;;;;;6.00;2.45;;;;;;;;;;5030011;28;20072;-60
2023/09/07 14:26:51;;;;;;;4.68;2.63;;;;;;;;;;5029937;28;20439;-60
2023/09/07 14:29:17;;;;;;;3.83;2.83;;;;;;;;;;5029137;28;20049;-60
2023/09/07 14:31:43;;;;;;;3.97;2.22;;;;;;;;;;5029706;28;20473;-60
2023/09/07 14:34:10;;;;;;;6.10;2.85;;;;;;;;;;5029794;28;20420;-60